sensor_id;sensor_type;location;lat;lon;timestamp;P1;durP1;ratioP1;P2;durP2;ratioP2
12880;SDS011;6508;53.786;9.996;2022-08-19T00:01:26;32.15;;;27.98;;
12880;SDS011;6508;53.786;9.996;2022-08-19T00:03:56;31.15;;;26.83;;
12880;SDS011;6508;53.786;9.996;2022-08-19T00:06:24;30.23;;;26.70;;
12880;SDS011;6508;53.786;9.996;2022-08-19T00:08:53;33.10;;;29.25;;
12880;SDS011;6508;53.786;9.996;2022-08-19T00:11:21;31.80;;;25.75;;
12880;SDS011;6508;53.786;9.996;2022-08-19T00:13:51;28.75;;;23.98;;
12880;SDS011;6508;53.786;9.996;2022-08-19T00:16:22;34.03;;;29.17;;
12880;SDS011;6508;53.786;9.996;2022-08-19T00:18:52;37.05;;;27.52;;
12880;SDS011;6508;53.786;9.996;2022-08-19T00:21:19;31.13;;;26.20;;
12880;SDS011;6508;53.786;9.996;2022-08-19T00:23:47;32.28;;;27.33;;
12880;SDS011;6508;53.786;9.996;2022-08-19T00:26:16;34.60;;;27.88;;
12880;SDS011;6508;53.786;9.996;2022-08-19T00:28:44;34.63;;;26.35;;
12880;SDS011;6508;53.786;9.996;2022-08-19T00:31:12;33.25;;;26.10;;
12880;SDS011;6508;53.786;9.996;2022-08-19T00:33:40;31.75;;;26.70;;
12880;SDS011;6508;53.786;9.996;2022-08-19T00:36:08;31.58;;;25.52;;
12880;SDS011;6508;53.786;9.996;2022-08-19T00:38:37;28.85;;;25.45;;
12880;SDS011;6508;53.786;9.996;2022-08-19T00:41:09;32.17;;;28.42;;
12880;SDS011;6508;53.786;9.996;2022-08-19T00:43:38;28.60;;;25.52;;
12880;SDS011;6508;53.786;9.996;2022-08-19T00:46:07;30.75;;;26.80;;
12880;SDS011;6508;53.786;9.996;2022-08-19T00:48:35;33.67;;;26.02;;
12880;SDS011;6508;53.786;9.996;2022-08-19T00:51:03;26.98;;;23.98;;
12880;SDS011;6508;53.786;9.996;2022-08-19T00:53:31;27.65;;;24.20;;
12880;SDS011;6508;53.786;9.996;2022-08-19T00:56:00;33.53;;;25.25;;
12880;SDS011;6508;53.786;9.996;2022-08-19T00:58:29;28.85;;;25.60;;
12880;SDS011;6508;53.786;9.996;2022-08-19T01:00:58;34.80;;;26.60;;
12880;SDS011;6508;53.786;9.996;2022-08-19T01:03:27;36.42;;;27.30;;
12880;SDS011;6508;53.786;9.996;2022-08-19T01:06:15;32.97;;;26.75;;
12880;SDS011;6508;53.786;9.996;2022-08-19T01:08:46;30.85;;;25.27;;
12880;SDS011;6508;53.786;9.996;2022-08-19T01:11:15;30.98;;;25.92;;
12880;SDS011;6508;53.786;9.996;2022-08-19T01:13:44;33.03;;;24.85;;
12880;SDS011;6508;53.786;9.996;2022-08-19T01:16:17;34.80;;;27.23;;
12880;SDS011;6508;53.786;9.996;2022-08-19T01:18:47;30.50;;;25.90;;
12880;SDS011;6508;53.786;9.996;2022-08-19T01:21:16;33.08;;;26.48;;
12880;SDS011;6508;53.786;9.996;2022-08-19T01:23:46;33.88;;;27.67;;
12880;SDS011;6508;53.786;9.996;2022-08-19T01:26:15;32.90;;;28.00;;
12880;SDS011;6508;53.786;9.996;2022-08-19T01:28:45;36.08;;;26.70;;
12880;SDS011;6508;53.786;9.996;2022-08-19T01:31:14;34.58;;;26.88;;
12880;SDS011;6508;53.786;9.996;2022-08-19T01:33:54;34.92;;;26.67;;
12880;SDS011;6508;53.786;9.996;2022-08-19T01:36:22;34.90;;;25.80;;
12880;SDS011;6508;53.786;9.996;2022-08-19T01:38:53;38.67;;;24.63;;
12880;SDS011;6508;53.786;9.996;2022-08-19T01:41:20;41.35;;;25.95;;
12880;SDS011;6508;53.786;9.996;2022-08-19T01:43:50;32.75;;;25.95;;
12880;SDS011;6508;53.786;9.996;2022-08-19T01:46:38;36.42;;;25.17;;
12880;SDS011;6508;53.786;9.996;2022-08-19T01:49:06;34.40;;;27.10;;
12880;SDS011;6508;53.786;9.996;2022-08-19T01:51:36;33.13;;;23.88;;
12880;SDS011;6508;53.786;9.996;2022-08-19T01:54:07;33.25;;;24.48;;
12880;SDS011;6508;53.786;9.996;2022-08-19T01:56:34;35.75;;;24.70;;
12880;SDS011;6508;53.786;9.996;2022-08-19T01:59:03;30.73;;;24.75;;
12880;SDS011;6508;53.786;9.996;2022-08-19T02:01:32;25.95;;;22.70;;
12880;SDS011;6508;53.786;9.996;2022-08-19T02:04:01;36.35;;;25.73;;
12880;SDS011;6508;53.786;9.996;2022-08-19T02:06:29;32.80;;;23.92;;
12880;SDS011;6508;53.786;9.996;2022-08-19T02:08:57;34.00;;;25.05;;
12880;SDS011;6508;53.786;9.996;2022-08-19T02:11:26;35.38;;;24.58;;
12880;SDS011;6508;53.786;9.996;2022-08-19T02:13:54;39.70;;;26.85;;
12880;SDS011;6508;53.786;9.996;2022-08-19T02:16:22;29.13;;;22.48;;
12880;SDS011;6508;53.786;9.996;2022-08-19T02:18:50;30.95;;;24.23;;
12880;SDS011;6508;53.786;9.996;2022-08-19T02:21:18;33.10;;;25.65;;
12880;SDS011;6508;53.786;9.996;2022-08-19T02:23:46;34.05;;;22.80;;
12880;SDS011;6508;53.786;9.996;2022-08-19T02:26:14;39.97;;;24.70;;
12880;SDS011;6508;53.786;9.996;2022-08-19T02:28:43;31.65;;;24.48;;
12880;SDS011;6508;53.786;9.996;2022-08-19T02:31:13;36.00;;;24.52;;
12880;SDS011;6508;53.786;9.996;2022-08-19T02:33:41;31.10;;;23.15;;
12880;SDS011;6508;53.786;9.996;2022-08-19T02:36:09;33.05;;;23.27;;
12880;SDS011;6508;53.786;9.996;2022-08-19T02:38:38;35.20;;;24.42;;
12880;SDS011;6508;53.786;9.996;2022-08-19T02:41:06;36.33;;;23.10;;
12880;SDS011;6508;53.786;9.996;2022-08-19T02:43:36;35.72;;;24.95;;
12880;SDS011;6508;53.786;9.996;2022-08-19T02:46:15;32.33;;;22.52;;
12880;SDS011;6508;53.786;9.996;2022-08-19T02:48:47;32.00;;;23.08;;
12880;SDS011;6508;53.786;9.996;2022-08-19T02:51:15;33.42;;;23.23;;
12880;SDS011;6508;53.786;9.996;2022-08-19T02:53:43;37.50;;;23.67;;
12880;SDS011;6508;53.786;9.996;2022-08-19T02:56:11;30.50;;;22.20;;
12880;SDS011;6508;53.786;9.996;2022-08-19T02:58:39;39.78;;;23.42;;
12880;SDS011;6508;53.786;9.996;2022-08-19T03:01:08;26.08;;;22.30;;
12880;SDS011;6508;53.786;9.996;2022-08-19T03:03:38;26.98;;;20.90;;
12880;SDS011;6508;53.786;9.996;2022-08-19T03:06:06;25.70;;;21.08;;
12880;SDS011;6508;53.786;9.996;2022-08-19T03:08:35;25.80;;;20.63;;
12880;SDS011;6508;53.786;9.996;2022-08-19T03:11:03;29.80;;;20.70;;
12880;SDS011;6508;53.786;9.996;2022-08-19T03:13:31;28.05;;;22.25;;
12880;SDS011;6508;53.786;9.996;2022-08-19T03:15:58;30.10;;;23.98;;
12880;SDS011;6508;53.786;9.996;2022-08-19T03:18:26;27.90;;;23.10;;
12880;SDS011;6508;53.786;9.996;2022-08-19T03:20:55;29.65;;;22.55;;
12880;SDS011;6508;53.786;9.996;2022-08-19T03:23:23;24.92;;;20.80;;
12880;SDS011;6508;53.786;9.996;2022-08-19T03:25:51;31.92;;;21.20;;
12880;SDS011;6508;53.786;9.996;2022-08-19T03:28:40;25.60;;;20.05;;
12880;SDS011;6508;53.786;9.996;2022-08-19T03:31:17;28.55;;;22.02;;
12880;SDS011;6508;53.786;9.996;2022-08-19T03:34:05;33.33;;;22.02;;
12880;SDS011;6508;53.786;9.996;2022-08-19T03:36:34;30.45;;;20.08;;
12880;SDS011;6508;53.786;9.996;2022-08-19T03:39:02;32.60;;;21.20;;
12880;SDS011;6508;53.786;9.996;2022-08-19T03:41:32;28.92;;;21.60;;
12880;SDS011;6508;53.786;9.996;2022-08-19T03:44:11;30.02;;;23.85;;
12880;SDS011;6508;53.786;9.996;2022-08-19T03:46:43;30.10;;;22.05;;
12880;SDS011;6508;53.786;9.996;2022-08-19T03:49:11;30.02;;;21.95;;
12880;SDS011;6508;53.786;9.996;2022-08-19T03:51:42;29.55;;;21.10;;
12880;SDS011;6508;53.786;9.996;2022-08-19T03:54:12;27.17;;;20.83;;
12880;SDS011;6508;53.786;9.996;2022-08-19T03:56:40;30.95;;;22.33;;
12880;SDS011;6508;53.786;9.996;2022-08-19T03:59:09;28.08;;;20.63;;
12880;SDS011;6508;53.786;9.996;2022-08-19T04:01:37;29.05;;;22.25;;
12880;SDS011;6508;53.786;9.996;2022-08-19T04:04:05;30.10;;;22.38;;
12880;SDS011;6508;53.786;9.996;2022-08-19T04:06:35;29.08;;;22.83;;
12880;SDS011;6508;53.786;9.996;2022-08-19T04:09:07;37.97;;;24.05;;
12880;SDS011;6508;53.786;9.996;2022-08-19T04:11:37;32.30;;;24.08;;
12880;SDS011;6508;53.786;9.996;2022-08-19T04:14:10;30.92;;;24.05;;
12880;SDS011;6508;53.786;9.996;2022-08-19T04:16:38;37.67;;;24.95;;
12880;SDS011;6508;53.786;9.996;2022-08-19T04:19:06;28.33;;;23.75;;
12880;SDS011;6508;53.786;9.996;2022-08-19T04:21:34;38.25;;;24.10;;
12880;SDS011;6508;53.786;9.996;2022-08-19T04:24:02;35.13;;;23.63;;
12880;SDS011;6508;53.786;9.996;2022-08-19T04:26:33;34.30;;;26.23;;
12880;SDS011;6508;53.786;9.996;2022-08-19T04:29:03;36.67;;;26.27;;
12880;SDS011;6508;53.786;9.996;2022-08-19T04:31:37;33.33;;;23.40;;
12880;SDS011;6508;53.786;9.996;2022-08-19T04:34:07;34.42;;;24.13;;
12880;SDS011;6508;53.786;9.996;2022-08-19T04:36:38;32.13;;;25.52;;
12880;SDS011;6508;53.786;9.996;2022-08-19T04:39:08;37.22;;;26.50;;
12880;SDS011;6508;53.786;9.996;2022-08-19T04:41:38;38.10;;;26.95;;
12880;SDS011;6508;53.786;9.996;2022-08-19T04:44:23;38.42;;;25.15;;
12880;SDS011;6508;53.786;9.996;2022-08-19T04:46:52;43.55;;;27.45;;
12880;SDS011;6508;53.786;9.996;2022-08-19T04:49:20;33.63;;;25.35;;
12880;SDS011;6508;53.786;9.996;2022-08-19T04:51:49;41.75;;;26.45;;
12880;SDS011;6508;53.786;9.996;2022-08-19T04:54:18;39.58;;;26.67;;
12880;SDS011;6508;53.786;9.996;2022-08-19T04:57:06;32.88;;;26.10;;
12880;SDS011;6508;53.786;9.996;2022-08-19T04:59:34;42.00;;;33.95;;
12880;SDS011;6508;53.786;9.996;2022-08-19T05:02:02;36.85;;;27.38;;
12880;SDS011;6508;53.786;9.996;2022-08-19T05:04:30;32.60;;;24.77;;
12880;SDS011;6508;53.786;9.996;2022-08-19T05:07:00;33.08;;;24.98;;
12880;SDS011;6508;53.786;9.996;2022-08-19T05:09:28;42.85;;;25.38;;
12880;SDS011;6508;53.786;9.996;2022-08-19T05:12:17;42.80;;;25.75;;
12880;SDS011;6508;53.786;9.996;2022-08-19T05:14:45;43.88;;;26.92;;
12880;SDS011;6508;53.786;9.996;2022-08-19T05:17:14;36.47;;;25.80;;
12880;SDS011;6508;53.786;9.996;2022-08-19T05:19:54;35.15;;;24.40;;
12880;SDS011;6508;53.786;9.996;2022-08-19T05:22:39;37.28;;;25.50;;
12880;SDS011;6508;53.786;9.996;2022-08-19T05:25:09;38.50;;;25.45;;
12880;SDS011;6508;53.786;9.996;2022-08-19T05:27:41;38.55;;;26.42;;
12880;SDS011;6508;53.786;9.996;2022-08-19T05:30:09;33.75;;;23.77;;
12880;SDS011;6508;53.786;9.996;2022-08-19T05:32:37;36.35;;;25.08;;
12880;SDS011;6508;53.786;9.996;2022-08-19T05:35:05;37.75;;;24.95;;
12880;SDS011;6508;53.786;9.996;2022-08-19T05:37:33;34.10;;;24.50;;
12880;SDS011;6508;53.786;9.996;2022-08-19T05:40:01;30.60;;;23.23;;
12880;SDS011;6508;53.786;9.996;2022-08-19T05:42:29;27.58;;;21.45;;
12880;SDS011;6508;53.786;9.996;2022-08-19T05:44:59;32.03;;;21.80;;
12880;SDS011;6508;53.786;9.996;2022-08-19T05:47:26;31.05;;;22.73;;
12880;SDS011;6508;53.786;9.996;2022-08-19T05:49:54;38.45;;;23.13;;
12880;SDS011;6508;53.786;9.996;2022-08-19T05:52:21;30.50;;;22.70;;
12880;SDS011;6508;53.786;9.996;2022-08-19T05:54:51;33.95;;;21.75;;
12880;SDS011;6508;53.786;9.996;2022-08-19T05:57:21;31.70;;;24.50;;
12880;SDS011;6508;53.786;9.996;2022-08-19T05:59:49;33.30;;;22.80;;
12880;SDS011;6508;53.786;9.996;2022-08-19T06:02:25;38.88;;;23.02;;
12880;SDS011;6508;53.786;9.996;2022-08-19T06:04:53;34.15;;;23.13;;
12880;SDS011;6508;53.786;9.996;2022-08-19T06:07:20;40.38;;;24.40;;
12880;SDS011;6508;53.786;9.996;2022-08-19T06:09:48;35.80;;;24.83;;
12880;SDS011;6508;53.786;9.996;2022-08-19T06:12:26;31.95;;;24.38;;
12880;SDS011;6508;53.786;9.996;2022-08-19T06:14:58;35.40;;;23.90;;
12880;SDS011;6508;53.786;9.996;2022-08-19T06:17:28;37.45;;;24.63;;
12880;SDS011;6508;53.786;9.996;2022-08-19T06:19:57;35.30;;;24.45;;
12880;SDS011;6508;53.786;9.996;2022-08-19T06:22:26;33.90;;;23.80;;
12880;SDS011;6508;53.786;9.996;2022-08-19T06:24:54;33.80;;;24.73;;
12880;SDS011;6508;53.786;9.996;2022-08-19T06:27:22;36.45;;;23.55;;
12880;SDS011;6508;53.786;9.996;2022-08-19T06:29:49;31.02;;;23.27;;
12880;SDS011;6508;53.786;9.996;2022-08-19T06:32:18;30.42;;;23.95;;
12880;SDS011;6508;53.786;9.996;2022-08-19T06:34:47;38.15;;;22.85;;
12880;SDS011;6508;53.786;9.996;2022-08-19T06:37:15;32.53;;;24.42;;
12880;SDS011;6508;53.786;9.996;2022-08-19T06:39:43;31.23;;;23.35;;
12880;SDS011;6508;53.786;9.996;2022-08-19T06:42:11;31.70;;;23.27;;
12880;SDS011;6508;53.786;9.996;2022-08-19T06:44:44;29.90;;;23.23;;
12880;SDS011;6508;53.786;9.996;2022-08-19T06:47:15;30.48;;;23.77;;
12880;SDS011;6508;53.786;9.996;2022-08-19T06:49:52;29.85;;;22.55;;
12880;SDS011;6508;53.786;9.996;2022-08-19T06:52:26;32.05;;;22.98;;
12880;SDS011;6508;53.786;9.996;2022-08-19T06:54:54;30.88;;;22.45;;
12880;SDS011;6508;53.786;9.996;2022-08-19T06:57:25;32.75;;;22.27;;
12880;SDS011;6508;53.786;9.996;2022-08-19T06:59:53;31.25;;;22.70;;
12880;SDS011;6508;53.786;9.996;2022-08-19T07:02:22;31.80;;;22.52;;
12880;SDS011;6508;53.786;9.996;2022-08-19T07:04:54;31.77;;;20.58;;
12880;SDS011;6508;53.786;9.996;2022-08-19T07:07:24;30.80;;;20.95;;
12880;SDS011;6508;53.786;9.996;2022-08-19T07:09:52;27.73;;;21.55;;
12880;SDS011;6508;53.786;9.996;2022-08-19T07:12:27;26.30;;;18.95;;
12880;SDS011;6508;53.786;9.996;2022-08-19T07:14:56;25.10;;;20.17;;
12880;SDS011;6508;53.786;9.996;2022-08-19T07:17:23;26.15;;;19.92;;
12880;SDS011;6508;53.786;9.996;2022-08-19T07:19:51;23.83;;;20.27;;
12880;SDS011;6508;53.786;9.996;2022-08-19T07:22:21;26.92;;;22.27;;
12880;SDS011;6508;53.786;9.996;2022-08-19T07:24:50;32.93;;;29.73;;
12880;SDS011;6508;53.786;9.996;2022-08-19T07:27:18;36.72;;;32.83;;
12880;SDS011;6508;53.786;9.996;2022-08-19T07:29:51;31.02;;;22.48;;
12880;SDS011;6508;53.786;9.996;2022-08-19T07:32:22;27.17;;;19.88;;
12880;SDS011;6508;53.786;9.996;2022-08-19T07:34:52;30.73;;;20.58;;
12880;SDS011;6508;53.786;9.996;2022-08-19T07:37:21;27.88;;;20.10;;
12880;SDS011;6508;53.786;9.996;2022-08-19T07:39:49;28.02;;;21.13;;
12880;SDS011;6508;53.786;9.996;2022-08-19T07:42:16;26.77;;;21.00;;
12880;SDS011;6508;53.786;9.996;2022-08-19T07:44:47;30.15;;;20.90;;
12880;SDS011;6508;53.786;9.996;2022-08-19T07:47:16;25.70;;;21.75;;
12880;SDS011;6508;53.786;9.996;2022-08-19T07:50:05;28.60;;;23.30;;
12880;SDS011;6508;53.786;9.996;2022-08-19T07:52:34;29.92;;;22.08;;
12880;SDS011;6508;53.786;9.996;2022-08-19T07:55:05;33.20;;;24.33;;
12880;SDS011;6508;53.786;9.996;2022-08-19T07:57:53;30.48;;;23.95;;
12880;SDS011;6508;53.786;9.996;2022-08-19T08:00:21;27.27;;;21.77;;
12880;SDS011;6508;53.786;9.996;2022-08-19T08:02:50;33.30;;;23.17;;
12880;SDS011;6508;53.786;9.996;2022-08-19T08:05:20;26.73;;;22.48;;
12880;SDS011;6508;53.786;9.996;2022-08-19T08:08:11;33.75;;;25.15;;
12880;SDS011;6508;53.786;9.996;2022-08-19T08:10:57;34.05;;;24.20;;
12880;SDS011;6508;53.786;9.996;2022-08-19T08:13:25;27.50;;;22.88;;
12880;SDS011;6508;53.786;9.996;2022-08-19T08:15:54;38.55;;;25.33;;
12880;SDS011;6508;53.786;9.996;2022-08-19T08:18:22;37.83;;;23.23;;
12880;SDS011;6508;53.786;9.996;2022-08-19T08:20:56;28.70;;;22.05;;
12880;SDS011;6508;53.786;9.996;2022-08-19T08:23:25;26.48;;;23.35;;
12880;SDS011;6508;53.786;9.996;2022-08-19T08:25:53;28.58;;;21.77;;
12880;SDS011;6508;53.786;9.996;2022-08-19T08:28:24;31.33;;;22.77;;
12880;SDS011;6508;53.786;9.996;2022-08-19T08:30:55;32.50;;;23.40;;
12880;SDS011;6508;53.786;9.996;2022-08-19T08:33:25;28.52;;;21.50;;
12880;SDS011;6508;53.786;9.996;2022-08-19T08:36:00;29.10;;;21.85;;
12880;SDS011;6508;53.786;9.996;2022-08-19T08:38:31;27.35;;;22.00;;
12880;SDS011;6508;53.786;9.996;2022-08-19T08:41:06;31.73;;;24.30;;
12880;SDS011;6508;53.786;9.996;2022-08-19T08:43:37;28.35;;;22.63;;
12880;SDS011;6508;53.786;9.996;2022-08-19T08:46:09;27.85;;;23.05;;
12880;SDS011;6508;53.786;9.996;2022-08-19T08:48:38;27.50;;;21.90;;
12880;SDS011;6508;53.786;9.996;2022-08-19T08:51:12;25.52;;;22.02;;
12880;SDS011;6508;53.786;9.996;2022-08-19T08:53:47;25.75;;;21.75;;
12880;SDS011;6508;53.786;9.996;2022-08-19T08:56:21;27.15;;;22.73;;
12880;SDS011;6508;53.786;9.996;2022-08-19T08:58:51;24.02;;;21.55;;
12880;SDS011;6508;53.786;9.996;2022-08-19T09:01:20;24.42;;;21.10;;
12880;SDS011;6508;53.786;9.996;2022-08-19T09:03:48;27.45;;;20.60;;
12880;SDS011;6508;53.786;9.996;2022-08-19T09:06:19;24.00;;;21.60;;
12880;SDS011;6508;53.786;9.996;2022-08-19T09:08:56;24.80;;;22.17;;
12880;SDS011;6508;53.786;9.996;2022-08-19T09:11:32;25.45;;;21.63;;
12880;SDS011;6508;53.786;9.996;2022-08-19T09:14:10;27.10;;;21.48;;
12880;SDS011;6508;53.786;9.996;2022-08-19T09:17:03;22.90;;;20.70;;
12880;SDS011;6508;53.786;9.996;2022-08-19T09:19:34;21.50;;;19.10;;
12880;SDS011;6508;53.786;9.996;2022-08-19T09:22:02;22.10;;;19.85;;
12880;SDS011;6508;53.786;9.996;2022-08-19T09:24:32;22.33;;;20.02;;
12880;SDS011;6508;53.786;9.996;2022-08-19T09:27:02;23.05;;;18.98;;
12880;SDS011;6508;53.786;9.996;2022-08-19T09:29:44;22.05;;;19.83;;
12880;SDS011;6508;53.786;9.996;2022-08-19T09:32:12;21.65;;;19.45;;
12880;SDS011;6508;53.786;9.996;2022-08-19T09:34:52;21.98;;;19.17;;
12880;SDS011;6508;53.786;9.996;2022-08-19T09:37:20;22.48;;;20.08;;
12880;SDS011;6508;53.786;9.996;2022-08-19T09:39:51;21.05;;;18.90;;
12880;SDS011;6508;53.786;9.996;2022-08-19T09:42:20;23.20;;;19.40;;
12880;SDS011;6508;53.786;9.996;2022-08-19T09:44:56;22.48;;;18.90;;
12880;SDS011;6508;53.786;9.996;2022-08-19T09:47:25;22.25;;;19.80;;
12880;SDS011;6508;53.786;9.996;2022-08-19T09:49:53;24.88;;;19.55;;
12880;SDS011;6508;53.786;9.996;2022-08-19T09:52:21;26.08;;;20.13;;
12880;SDS011;6508;53.786;9.996;2022-08-19T09:54:52;23.58;;;19.83;;
12880;SDS011;6508;53.786;9.996;2022-08-19T09:57:20;23.02;;;19.85;;
12880;SDS011;6508;53.786;9.996;2022-08-19T09:59:48;20.65;;;18.48;;
12880;SDS011;6508;53.786;9.996;2022-08-19T10:02:15;21.92;;;18.65;;
12880;SDS011;6508;53.786;9.996;2022-08-19T10:04:47;21.17;;;17.48;;
12880;SDS011;6508;53.786;9.996;2022-08-19T10:07:33;21.65;;;18.27;;
12880;SDS011;6508;53.786;9.996;2022-08-19T10:10:04;20.42;;;18.23;;
12880;SDS011;6508;53.786;9.996;2022-08-19T10:12:33;21.15;;;18.10;;
12880;SDS011;6508;53.786;9.996;2022-08-19T10:15:01;20.98;;;18.33;;
12880;SDS011;6508;53.786;9.996;2022-08-19T10:17:28;20.33;;;18.13;;
12880;SDS011;6508;53.786;9.996;2022-08-19T10:19:58;20.45;;;18.45;;
12880;SDS011;6508;53.786;9.996;2022-08-19T10:22:27;19.17;;;16.52;;
12880;SDS011;6508;53.786;9.996;2022-08-19T10:24:56;19.13;;;17.30;;
12880;SDS011;6508;53.786;9.996;2022-08-19T10:27:25;20.17;;;17.95;;
12880;SDS011;6508;53.786;9.996;2022-08-19T10:29:57;21.17;;;19.17;;
12880;SDS011;6508;53.786;9.996;2022-08-19T10:32:26;21.52;;;18.48;;
12880;SDS011;6508;53.786;9.996;2022-08-19T10:35:00;23.20;;;18.27;;
12880;SDS011;6508;53.786;9.996;2022-08-19T10:37:30;20.33;;;17.98;;
12880;SDS011;6508;53.786;9.996;2022-08-19T10:40:00;19.40;;;17.40;;
12880;SDS011;6508;53.786;9.996;2022-08-19T10:42:30;23.00;;;18.67;;
12880;SDS011;6508;53.786;9.996;2022-08-19T10:44:58;19.80;;;17.33;;
12880;SDS011;6508;53.786;9.996;2022-08-19T10:47:26;25.08;;;18.25;;
12880;SDS011;6508;53.786;9.996;2022-08-19T10:49:57;22.08;;;19.00;;
12880;SDS011;6508;53.786;9.996;2022-08-19T10:52:43;18.35;;;16.33;;
12880;SDS011;6508;53.786;9.996;2022-08-19T10:55:15;22.75;;;19.33;;
12880;SDS011;6508;53.786;9.996;2022-08-19T10:58:02;20.25;;;18.05;;
12880;SDS011;6508;53.786;9.996;2022-08-19T11:00:30;20.55;;;18.35;;
12880;SDS011;6508;53.786;9.996;2022-08-19T11:02:58;19.60;;;17.27;;
12880;SDS011;6508;53.786;9.996;2022-08-19T11:05:26;22.48;;;19.30;;
12880;SDS011;6508;53.786;9.996;2022-08-19T11:07:54;19.17;;;17.25;;
12880;SDS011;6508;53.786;9.996;2022-08-19T11:10:22;20.98;;;18.85;;
12880;SDS011;6508;53.786;9.996;2022-08-19T11:12:50;24.35;;;17.95;;
12880;SDS011;6508;53.786;9.996;2022-08-19T11:15:21;18.52;;;16.63;;
12880;SDS011;6508;53.786;9.996;2022-08-19T11:17:50;18.10;;;16.25;;
12880;SDS011;6508;53.786;9.996;2022-08-19T11:20:21;17.83;;;16.00;;
12880;SDS011;6508;53.786;9.996;2022-08-19T11:22:51;19.30;;;17.35;;
12880;SDS011;6508;53.786;9.996;2022-08-19T11:25:18;17.67;;;15.88;;
12880;SDS011;6508;53.786;9.996;2022-08-19T11:27:46;17.85;;;16.25;;
12880;SDS011;6508;53.786;9.996;2022-08-19T11:30:17;17.90;;;16.30;;
12880;SDS011;6508;53.786;9.996;2022-08-19T11:32:46;16.40;;;14.75;;
12880;SDS011;6508;53.786;9.996;2022-08-19T11:35:15;16.50;;;14.45;;
12880;SDS011;6508;53.786;9.996;2022-08-19T11:37:46;17.27;;;15.48;;
12880;SDS011;6508;53.786;9.996;2022-08-19T11:40:14;17.27;;;15.68;;
12880;SDS011;6508;53.786;9.996;2022-08-19T11:42:41;17.35;;;15.82;;
12880;SDS011;6508;53.786;9.996;2022-08-19T11:45:22;16.48;;;14.75;;
12880;SDS011;6508;53.786;9.996;2022-08-19T11:47:51;17.42;;;15.63;;
12880;SDS011;6508;53.786;9.996;2022-08-19T11:50:20;15.95;;;14.25;;
12880;SDS011;6508;53.786;9.996;2022-08-19T11:52:49;17.02;;;15.32;;
12880;SDS011;6508;53.786;9.996;2022-08-19T11:55:17;17.15;;;15.55;;
12880;SDS011;6508;53.786;9.996;2022-08-19T11:57:46;18.13;;;16.30;;
12880;SDS011;6508;53.786;9.996;2022-08-19T12:00:14;18.98;;;16.73;;
12880;SDS011;6508;53.786;9.996;2022-08-19T12:02:41;17.25;;;15.50;;
12880;SDS011;6508;53.786;9.996;2022-08-19T12:05:11;17.98;;;16.17;;
12880;SDS011;6508;53.786;9.996;2022-08-19T12:07:39;18.63;;;17.05;;
12880;SDS011;6508;53.786;9.996;2022-08-19T12:10:07;16.23;;;14.80;;
12880;SDS011;6508;53.786;9.996;2022-08-19T12:12:37;19.17;;;16.52;;
12880;SDS011;6508;53.786;9.996;2022-08-19T12:15:07;18.35;;;16.55;;
12880;SDS011;6508;53.786;9.996;2022-08-19T12:17:35;17.77;;;15.30;;
12880;SDS011;6508;53.786;9.996;2022-08-19T12:20:03;16.23;;;14.68;;
12880;SDS011;6508;53.786;9.996;2022-08-19T12:22:32;17.10;;;15.50;;
12880;SDS011;6508;53.786;9.996;2022-08-19T12:25:01;15.68;;;14.02;;
12880;SDS011;6508;53.786;9.996;2022-08-19T12:27:28;15.00;;;13.63;;
12880;SDS011;6508;53.786;9.996;2022-08-19T12:30:07;14.43;;;13.10;;
12880;SDS011;6508;53.786;9.996;2022-08-19T12:32:35;17.85;;;13.27;;
12880;SDS011;6508;53.786;9.996;2022-08-19T12:35:03;15.75;;;14.27;;
12880;SDS011;6508;53.786;9.996;2022-08-19T12:37:33;15.77;;;14.30;;
12880;SDS011;6508;53.786;9.996;2022-08-19T12:40:00;15.75;;;14.25;;
12880;SDS011;6508;53.786;9.996;2022-08-19T12:42:29;19.20;;;15.32;;
12880;SDS011;6508;53.786;9.996;2022-08-19T12:44:57;15.18;;;13.73;;
12880;SDS011;6508;53.786;9.996;2022-08-19T12:47:25;17.63;;;15.13;;
12880;SDS011;6508;53.786;9.996;2022-08-19T12:49:53;15.30;;;13.75;;
12880;SDS011;6508;53.786;9.996;2022-08-19T12:52:22;13.35;;;12.02;;
12880;SDS011;6508;53.786;9.996;2022-08-19T12:54:51;13.50;;;12.27;;
12880;SDS011;6508;53.786;9.996;2022-08-19T12:57:21;14.68;;;13.40;;
12880;SDS011;6508;53.786;9.996;2022-08-19T12:59:57;14.05;;;12.85;;
12880;SDS011;6508;53.786;9.996;2022-08-19T13:02:25;13.65;;;12.45;;
12880;SDS011;6508;53.786;9.996;2022-08-19T13:04:53;14.68;;;13.38;;
12880;SDS011;6508;53.786;9.996;2022-08-19T13:07:21;14.23;;;13.02;;
12880;SDS011;6508;53.786;9.996;2022-08-19T13:09:52;17.27;;;15.77;;
12880;SDS011;6508;53.786;9.996;2022-08-19T13:12:19;15.38;;;13.98;;
12880;SDS011;6508;53.786;9.996;2022-08-19T13:14:50;17.58;;;16.08;;
12880;SDS011;6508;53.786;9.996;2022-08-19T13:17:18;15.60;;;14.02;;
12880;SDS011;6508;53.786;9.996;2022-08-19T13:19:46;15.00;;;13.70;;
12880;SDS011;6508;53.786;9.996;2022-08-19T13:22:14;15.90;;;14.30;;
12880;SDS011;6508;53.786;9.996;2022-08-19T13:24:41;14.52;;;13.48;;
12880;SDS011;6508;53.786;9.996;2022-08-19T13:27:14;15.50;;;14.02;;
12880;SDS011;6508;53.786;9.996;2022-08-19T13:29:41;15.18;;;13.63;;
12880;SDS011;6508;53.786;9.996;2022-08-19T13:32:27;15.05;;;13.68;;
12880;SDS011;6508;53.786;9.996;2022-08-19T13:35:14;15.00;;;13.80;;
12880;SDS011;6508;53.786;9.996;2022-08-19T13:37:42;14.23;;;13.05;;
12880;SDS011;6508;53.786;9.996;2022-08-19T13:40:12;14.70;;;13.40;;
12880;SDS011;6508;53.786;9.996;2022-08-19T13:42:43;14.05;;;12.68;;
12880;SDS011;6508;53.786;9.996;2022-08-19T13:45:14;14.88;;;13.68;;
12880;SDS011;6508;53.786;9.996;2022-08-19T13:47:44;13.95;;;12.70;;
12880;SDS011;6508;53.786;9.996;2022-08-19T13:50:12;13.30;;;12.23;;
12880;SDS011;6508;53.786;9.996;2022-08-19T13:52:41;13.35;;;12.25;;
12880;SDS011;6508;53.786;9.996;2022-08-19T13:55:09;12.13;;;11.23;;
12880;SDS011;6508;53.786;9.996;2022-08-19T13:57:37;13.32;;;12.23;;
12880;SDS011;6508;53.786;9.996;2022-08-19T14:00:08;14.05;;;12.85;;
12880;SDS011;6508;53.786;9.996;2022-08-19T14:02:37;13.93;;;12.82;;
12880;SDS011;6508;53.786;9.996;2022-08-19T14:05:06;12.80;;;11.55;;
12880;SDS011;6508;53.786;9.996;2022-08-19T14:07:35;13.07;;;12.07;;
12880;SDS011;6508;53.786;9.996;2022-08-19T14:10:03;13.88;;;12.73;;
12880;SDS011;6508;53.786;9.996;2022-08-19T14:12:31;13.75;;;12.75;;
12880;SDS011;6508;53.786;9.996;2022-08-19T14:14:58;12.05;;;11.15;;
12880;SDS011;6508;53.786;9.996;2022-08-19T14:17:28;12.60;;;11.70;;
12880;SDS011;6508;53.786;9.996;2022-08-19T14:19:56;12.50;;;11.70;;
12880;SDS011;6508;53.786;9.996;2022-08-19T14:22:28;12.40;;;11.43;;
12880;SDS011;6508;53.786;9.996;2022-08-19T14:24:57;12.35;;;11.55;;
12880;SDS011;6508;53.786;9.996;2022-08-19T14:27:24;13.75;;;12.75;;
12880;SDS011;6508;53.786;9.996;2022-08-19T14:29:52;12.23;;;11.32;;
12880;SDS011;6508;53.786;9.996;2022-08-19T14:32:20;13.95;;;12.93;;
12880;SDS011;6508;53.786;9.996;2022-08-19T14:34:49;15.77;;;14.32;;
12880;SDS011;6508;53.786;9.996;2022-08-19T14:37:17;14.38;;;13.23;;
12880;SDS011;6508;53.786;9.996;2022-08-19T14:39:46;13.75;;;12.65;;
12880;SDS011;6508;53.786;9.996;2022-08-19T14:42:14;11.82;;;10.73;;
12880;SDS011;6508;53.786;9.996;2022-08-19T14:44:42;12.40;;;11.40;;
12880;SDS011;6508;53.786;9.996;2022-08-19T14:47:10;13.35;;;12.25;;
12880;SDS011;6508;53.786;9.996;2022-08-19T14:49:38;12.65;;;11.85;;
12880;SDS011;6508;53.786;9.996;2022-08-19T14:52:15;13.38;;;12.45;;